createdAt,value
2022-08-05T00:00:18.365Z,100911.16
2022-08-05T00:02:50.925Z,100907.69
2022-08-05T00:06:01.821Z,100908.78
2022-08-05T00:08:34.245Z,100912.78
2022-08-05T00:11:00.824Z,100911.28
2022-08-05T00:13:38.998Z,100919.16
2022-08-05T00:16:13.538Z,100920.97
2022-08-05T00:18:45.843Z,100919.75
2022-08-05T00:21:17.041Z,100914.84
2022-08-05T00:23:53.526Z,100923.84
2022-08-05T00:26:35.025Z,100917.59
2022-08-05T00:29:02.538Z,100912.75
2022-08-05T00:31:41.413Z,100916.72
2022-08-05T00:34:43.361Z,100913.88
2022-08-05T00:37:12.517Z,100916.38
2022-08-05T00:39:58.395Z,100916.00
2022-08-05T00:42:35.101Z,100919.13
2022-08-05T00:45:04.868Z,100918.47
2022-08-05T00:47:56.570Z,100918.28
2022-08-05T00:50:25.442Z,100913.00
2022-08-05T00:52:55.334Z,100913.22
2022-08-05T00:55:42.487Z,100916.81
2022-08-05T00:58:12.586Z,100913.88
2022-08-05T01:00:42.287Z,100911.59
2022-08-05T01:03:12.684Z,100914.97
2022-08-05T01:05:54.621Z,100918.72
2022-08-05T01:08:40.029Z,100921.34
2022-08-05T01:11:33.569Z,100926.06
2022-08-05T01:14:08.434Z,100927.97
2022-08-05T01:16:55.167Z,100923.50
2022-08-05T01:19:36.774Z,100931.97
2022-08-05T01:22:23.918Z,100933.22
2022-08-05T01:25:10.785Z,100935.56
2022-08-05T01:28:08.909Z,100935.88
2022-08-05T01:30:40.390Z,100942.81
2022-08-05T01:33:25.239Z,100940.41
2022-08-05T01:35:57.741Z,100951.16
2022-08-05T01:38:30.187Z,100952.25
2022-08-05T01:41:01.389Z,100961.16
2022-08-05T01:43:31.902Z,100953.34
2022-08-05T01:46:07.151Z,100956.34
2022-08-05T01:48:49.364Z,100957.16
2022-08-05T01:51:19.592Z,100960.44
2022-08-05T01:53:57.303Z,100955.47
2022-08-05T01:58:11.650Z,100965.34
2022-08-05T01:59:21.943Z,100950.16
2022-08-05T02:01:51.704Z,100954.63
2022-08-05T02:04:26.667Z,100957.75
2022-08-05T02:06:54.738Z,100949.72
2022-08-05T02:09:23.590Z,100952.19
2022-08-05T02:12:34.939Z,100951.88
2022-08-05T02:15:24.619Z,100956.41
2022-08-05T02:18:33.085Z,100951.38
2022-08-05T02:21:15.179Z,100951.88
2022-08-05T02:23:46.738Z,100949.84
2022-08-05T02:26:22.248Z,100944.25
2022-08-05T02:28:52.600Z,100957.44
2022-08-05T02:31:26.753Z,100956.22
2022-08-05T02:34:01.414Z,100953.03
2022-08-05T02:36:32.649Z,100938.53
2022-08-05T02:39:03.294Z,100938.28
2022-08-05T02:41:36.400Z,100945.09
2022-08-05T02:44:13.499Z,100941.09
2022-08-05T02:46:58.444Z,100943.34
2022-08-05T02:49:35.768Z,100946.78
2022-08-05T02:52:11.649Z,100948.00
2022-08-05T02:54:52.176Z,100943.78
2022-08-05T02:58:12.348Z,100948.13
2022-08-05T03:00:12.570Z,100948.97
2022-08-05T03:02:42.928Z,100954.66
2022-08-05T03:05:14.104Z,100954.19
2022-08-05T03:08:06.705Z,100957.56
2022-08-05T03:10:31.124Z,100967.31
2022-08-05T03:15:28.387Z,100957.88
2022-08-05T03:17:57.578Z,100957.88
2022-08-05T03:20:25.611Z,100961.44
2022-08-05T03:22:57.074Z,100955.63
2022-08-05T03:26:04.039Z,100961.69
2022-08-05T03:28:18.640Z,100956.28
2022-08-05T03:30:49.529Z,100956.88
2022-08-05T03:33:18.831Z,100959.16
2022-08-05T03:35:47.405Z,100954.94
2022-08-05T03:38:15.394Z,100958.66
2022-08-05T03:40:45.338Z,100954.59
2022-08-05T03:44:08.461Z,100957.47
2022-08-05T03:46:05.542Z,100957.63
2022-08-05T03:48:36.717Z,100964.22
2022-08-05T03:52:48.779Z,100959.78
2022-08-05T03:55:49.808Z,100954.47
2022-08-05T03:57:17.871Z,100948.97
2022-08-05T03:59:55.030Z,100952.38
2022-08-05T04:02:34.775Z,100948.66
2022-08-05T04:05:10.248Z,100948.47
2022-08-05T04:07:58.016Z,100947.22
2022-08-05T09:46:07.311Z,100974.09
2022-08-05T09:48:31.695Z,100975.81
2022-08-05T09:51:14.844Z,100979.06
2022-08-05T09:53:55.207Z,100974.69
2022-08-05T09:56:30.431Z,100972.72
2022-08-05T09:59:04.904Z,100972.28
2022-08-05T10:01:36.996Z,100965.81
2022-08-05T10:04:13.834Z,100960.44
2022-08-05T10:06:58.772Z,100958.25
2022-08-05T10:09:29.840Z,100948.84
2022-08-05T10:12:18.639Z,100951.66
2022-08-05T10:15:17.032Z,100947.81
2022-08-05T10:18:02.858Z,100949.56
2022-08-05T10:20:32.855Z,100955.00
2022-08-05T10:23:02.025Z,100953.56
2022-08-05T10:25:31.617Z,100952.84
2022-08-05T23:03:57.872Z,101028.28
2022-08-05T23:06:27.221Z,101020.06
2022-08-05T23:08:56.433Z,101022.31
2022-08-05T23:11:46.605Z,101020.16
2022-08-05T23:14:22.699Z,101030.50
2022-08-05T23:17:24.564Z,101033.59
2022-08-05T23:20:03.176Z,101029.56
2022-08-05T23:22:30.984Z,101023.94
2022-08-05T23:24:59.047Z,101027.53
2022-08-05T23:27:28.839Z,101035.91
2022-08-05T23:30:10.660Z,101028.94
2022-08-05T23:32:40.812Z,101032.88
2022-08-05T23:35:13.194Z,101023.78
2022-08-05T23:37:41.155Z,101032.63
2022-08-05T23:40:11.656Z,101022.09
2022-08-05T23:42:39.405Z,101026.81
2022-08-05T23:45:14.438Z,101018.38
2022-08-05T23:47:48.303Z,101030.63
2022-08-05T23:50:17.065Z,101028.72
2022-08-05T23:52:50.683Z,101027.09
2022-08-05T23:55:19.310Z,101021.56
2022-08-05T23:57:48.934Z,101028.41
